Weather History for Pampa / Mesa Vista, TX

Change the Weather History Date:

Tuesday, October 15, 2013

  Actual Average (KBGD) Record (KBGD)
Temperature  
Mean Temperature 50 °F 61 °F  
Max Temperature 60 °F 73 °F 92 °F (1965)
Min Temperature 41 °F 48 °F 31 °F (1952)
Degree Days  
Heating Degree Days 14 6  
Month to date heating degree days 64  
Since 1 July heating degree days 92  
Cooling Degree Days 0 1  
Month to date cooling degree days 39  
Year to date cooling degree days 1824  
Moisture  
Dew Point 33 °F    
Average Humidity 53    
Maximum Humidity 76    
Minimum Humidity 34    
Precipitation  
Precipitation 0.00 in 0.06 in 1.61 in (1981)
Month to date precipitation 0.97  
Year to date precipitation 19.36  
Snow  
Snow 0.00 in - T in (1970)
Month to date snowfall  
Since 1 July snowfall  
Since 1 September snowfall  
Snow Depth -    
Sea Level Pressure  
Sea Level Pressure 30.16 in    
Wind  
Wind Speed 12 mph (NNE)    
Max Wind Speed 21 mph    
Max Gust Speed 29 mph    
Visibility 10 miles    
Events      
T = Trace of Precipitation, MM = Missing Value Source: NWS Daily Summary

Daily Weather History Graph

Daily Weather History Graph

Search for Another Location

Airport:

Trip Planner

Search our weather history database for the weather conditions in past years. The results will help you decide how hot, cold, wet, or windy it might be!

Date:

Astronomy

Oct. 15, 2013 Rise Set
Actual Time 7:51 AM CDT 7:07 PM CDT
Civil Twilight 7:25 AM CDT 7:33 PM CDT
Nautical Twilight 6:55 AM CDT 8:03 PM CDT
Astronomical Twilight 6:25 AM CDT 8:33 PM CDT
Moon 5:09 PM CDT (10/15) 4:21 AM CDT (10/15)
Length of Visible Light 12h 08m
Length of Day
11h 16m
Waxing Gibbous, 88% of the Moon is Illuminated
Oct 15
Waxing Gibbous
Oct 18
Full
Oct 26
Last Quarter
Nov 3
New
Nov 9
First Quarter

Hourly Weather History & Observations

Time (CDT) Temp. Windchill Dew Point Humidity Pressure Visibility Wind Dir Wind Speed Gust Speed Precip Events Conditions
12:15 AM 53.6 °F - 41.0 °F 62% 30.06 in 10.0 mi North 16.1 mph 19.6 mph N/A   Clear
12:35 AM 53.6 °F - 39.2 °F 58% 30.06 in 10.0 mi North 13.8 mph - N/A   Clear
12:55 AM 51.8 °F - 37.4 °F 58% 30.06 in 10.0 mi North 15.0 mph 20.7 mph N/A   Clear
1:15 AM 51.8 °F - 37.4 °F 58% 30.07 in 10.0 mi North 18.4 mph 21.9 mph N/A   Clear
1:35 AM 50.0 °F - 37.4 °F 62% 30.08 in 10.0 mi North 9.2 mph - N/A   Clear
1:55 AM 50.0 °F - 37.4 °F 62% 30.10 in 10.0 mi North 8.1 mph - N/A   Clear
2:15 AM 50.0 °F - 37.4 °F 62% 30.10 in 10.0 mi North 10.4 mph - N/A   Clear
2:35 AM 50.0 °F - 35.6 °F 58% 30.10 in 10.0 mi NNE 10.4 mph 21.9 mph N/A   Clear
2:55 AM 48.2 °F - 35.6 °F 62% 30.11 in 10.0 mi North 12.7 mph - N/A   Clear
3:15 AM 46.4 °F 41.5 °F 35.6 °F 66% 30.10 in 10.0 mi North 10.4 mph - N/A   Scattered Clouds
3:35 AM 46.4 °F 43.5 °F 37.4 °F 71% 30.11 in 10.0 mi North 5.8 mph - N/A   Scattered Clouds
3:55 AM 46.4 °F 42.4 °F 37.4 °F 71% 30.11 in 10.0 mi North 8.1 mph - N/A   Scattered Clouds
4:15 AM 44.6 °F 40.2 °F 37.4 °F 76% 30.12 in 10.0 mi North 8.1 mph - N/A   Scattered Clouds
4:35 AM 44.6 °F 39.2 °F 35.6 °F 71% 30.11 in 10.0 mi North 10.4 mph - N/A   Scattered Clouds
4:55 AM 44.6 °F 40.7 °F 35.6 °F 71% 30.12 in 10.0 mi North 6.9 mph - N/A   Scattered Clouds
5:15 AM 44.6 °F 41.4 °F 35.6 °F 71% 30.14 in 10.0 mi North 5.8 mph - N/A   Scattered Clouds
5:35 AM 44.6 °F 38.4 °F 33.8 °F 66% 30.13 in 10.0 mi North 12.7 mph - N/A   Clear
5:55 AM 44.6 °F 39.7 °F 33.8 °F 66% 30.15 in 10.0 mi North 9.2 mph - N/A   Clear
6:15 AM 44.6 °F 39.2 °F 33.8 °F 66% 30.15 in 10.0 mi North 10.4 mph 16.1 mph N/A   Clear
6:35 AM 42.8 °F 36.6 °F 33.8 °F 70% 30.16 in 10.0 mi North 11.5 mph - N/A   Clear
6:55 AM 42.8 °F 37.5 °F 33.8 °F 70% 30.16 in 10.0 mi North 9.2 mph - N/A   Clear
7:15 AM 42.8 °F 36.6 °F 33.8 °F 70% 30.17 in 10.0 mi North 11.5 mph 18.4 mph N/A   Scattered Clouds
7:35 AM 42.8 °F 38.0 °F 32.0 °F 66% 30.18 in 10.0 mi North 8.1 mph - N/A   Scattered Clouds
7:55 AM 42.8 °F 37.0 °F 32.0 °F 66% 30.19 in 10.0 mi North 10.4 mph - N/A   Scattered Clouds
8:15 AM 42.8 °F 37.0 °F 32.0 °F 66% 30.19 in 10.0 mi North 10.4 mph 17.3 mph N/A   Clear
8:35 AM 42.8 °F 36.2 °F 32.0 °F 66% 30.20 in 10.0 mi North 12.7 mph - N/A   Clear
8:55 AM 41.0 °F 34.7 °F 32.0 °F 70% 30.21 in 10.0 mi North 10.4 mph 19.6 mph N/A   Clear
9:15 AM 42.8 °F 37.5 °F 32.0 °F 66% 30.23 in 10.0 mi North 9.2 mph - N/A   Clear
9:35 AM 44.6 °F 37.4 °F 32.0 °F 61% 30.22 in 10.0 mi North 16.1 mph 21.9 mph N/A   Scattered Clouds
9:55 AM 44.6 °F 37.8 °F 32.0 °F 61% 30.23 in 10.0 mi North 15.0 mph 28.8 mph N/A   Scattered Clouds
10:15 AM 46.4 °F 38.7 °F 32.0 °F 57% 30.23 in 10.0 mi North 20.7 mph 26.5 mph N/A   Scattered Clouds
10:35 AM 46.4 °F 39.0 °F 32.0 °F 57% 30.23 in 10.0 mi North 19.6 mph 25.3 mph N/A   Clear
10:55 AM 50.0 °F - 32.0 °F 50% 30.23 in 10.0 mi North 19.6 mph 26.5 mph N/A   Clear
11:15 AM 50.0 °F - 32.0 °F 50% 30.23 in 10.0 mi North 16.1 mph 24.2 mph N/A   Clear
11:35 AM 51.8 °F - 32.0 °F 47% 30.22 in 10.0 mi North 18.4 mph 25.3 mph N/A   Clear
11:55 AM 51.8 °F - 32.0 °F 47% 30.22 in 10.0 mi North 18.4 mph 21.9 mph N/A   Clear
12:15 PM 53.6 °F - 32.0 °F 44% 30.22 in 10.0 mi North 16.1 mph 21.9 mph N/A   Clear
12:35 PM 53.6 °F - 32.0 °F 44% 30.21 in 10.0 mi North 18.4 mph 23.0 mph N/A   Clear
12:55 PM 53.6 °F - 32.0 °F 44% 30.21 in 10.0 mi North 17.3 mph 23.0 mph N/A   Clear
1:15 PM 55.4 °F - 32.0 °F 41% 30.20 in 10.0 mi North 15.0 mph 24.2 mph N/A   Clear
1:35 PM 55.4 °F - 32.0 °F 41% 30.19 in 10.0 mi North 15.0 mph 24.2 mph N/A   Clear
1:55 PM 55.4 °F - 32.0 °F 41% 30.17 in 10.0 mi North 16.1 mph 25.3 mph N/A   Clear
2:15 PM 57.2 °F - 32.0 °F 38% 30.16 in 10.0 mi North 10.4 mph 21.9 mph N/A   Clear
2:35 PM 59.0 °F - 32.0 °F 36% 30.15 in 10.0 mi North 17.3 mph 24.2 mph N/A   Clear
2:55 PM 59.0 °F - 32.0 °F 36% 30.14 in 10.0 mi North 18.4 mph 24.2 mph N/A   Clear
3:15 PM 59.0 °F - 32.0 °F 36% 30.14 in 10.0 mi North 12.7 mph 23.0 mph N/A   Clear
3:35 PM 59.0 °F - 32.0 °F 36% 30.14 in 10.0 mi North 13.8 mph 20.7 mph N/A   Clear
3:55 PM 59.0 °F - 32.0 °F 36% 30.12 in 10.0 mi NNE 17.3 mph 24.2 mph N/A   Unknown
4:15 PM 60.8 °F - 32.0 °F 34% 30.13 in 10.0 mi NNE 17.3 mph 23.0 mph N/A   Clear
4:35 PM 60.8 °F - 32.0 °F 34% 30.12 in 10.0 mi NNE 17.3 mph 20.7 mph N/A   Clear
4:55 PM 60.8 °F - 32.0 °F 34% 30.12 in 10.0 mi NNE 11.5 mph 21.9 mph N/A   Clear
5:15 PM 59.0 °F - 30.2 °F 34% 30.12 in 10.0 mi NNE 16.1 mph 20.7 mph N/A   Scattered Clouds
5:35 PM 60.8 °F - 32.0 °F 34% 30.12 in 10.0 mi North 13.8 mph 19.6 mph N/A   Scattered Clouds
5:55 PM 59.0 °F - 30.2 °F 34% 30.12 in 10.0 mi NNE 16.1 mph 20.7 mph N/A   Scattered Clouds
6:15 PM 57.2 °F - 30.2 °F 36% 30.12 in 10.0 mi North 11.5 mph - N/A   Scattered Clouds
6:35 PM 57.2 °F - 30.2 °F 36% 30.13 in 10.0 mi NNE 10.4 mph - N/A   Mostly Cloudy
6:55 PM 55.4 °F - 30.2 °F 38% 30.14 in 10.0 mi NNE 10.4 mph - N/A   Mostly Cloudy
7:15 PM 53.6 °F - 30.2 °F 41% 30.14 in 10.0 mi NNE 9.2 mph - N/A   Mostly Cloudy
7:35 PM 53.6 °F - 32.0 °F 44% 30.14 in 10.0 mi NNE 6.9 mph - N/A   Mostly Cloudy
7:55 PM 53.6 °F - 32.0 °F 44% 30.15 in 10.0 mi NNE 5.8 mph - N/A   Overcast
8:15 PM 51.8 °F - 32.0 °F 47% 30.16 in 10.0 mi NNE 4.6 mph - N/A   Overcast
8:35 PM 51.8 °F - 32.0 °F 47% 30.16 in 10.0 mi NNE 5.8 mph - N/A   Mostly Cloudy
8:55 PM 51.8 °F - 32.0 °F 47% 30.17 in 10.0 mi NNE 5.8 mph - N/A   Mostly Cloudy
9:15 PM 50.0 °F - 32.0 °F 50% 30.18 in 10.0 mi NNE 4.6 mph - N/A   Mostly Cloudy
9:35 PM 50.0 °F - 33.8 °F 54% 30.19 in 10.0 mi NNE 4.6 mph - N/A   Mostly Cloudy
9:55 PM 50.0 °F - 32.0 °F 50% 30.19 in 10.0 mi NNE 6.9 mph - N/A   Mostly Cloudy
10:15 PM 50.0 °F - 32.0 °F 50% 30.19 in 10.0 mi NNE 8.1 mph - N/A   Mostly Cloudy
10:35 PM 50.0 °F - 32.0 °F 50% 30.19 in 10.0 mi NNE 8.1 mph - N/A   Scattered Clouds
10:55 PM 50.0 °F - 32.0 °F 50% 30.19 in 10.0 mi NNE 8.1 mph - N/A   Scattered Clouds
11:15 PM 50.0 °F - 32.0 °F 50% 30.20 in 10.0 mi NE 6.9 mph - N/A   Scattered Clouds
11:35 PM 48.2 °F - 32.0 °F 54% 30.20 in 10.0 mi NE 8.1 mph - N/A   Scattered Clouds
11:55 PM 48.2 °F - 32.0 °F 54% 30.20 in 10.0 mi ENE 6.9 mph - N/A   Mostly Cloudy